createdAt,value
2017-05-19T00:00:20.330Z,998.2
2017-05-19T00:01:00.829Z,998.18
2017-05-19T00:01:41.228Z,998.17
2017-05-19T00:02:23.683Z,998.2
2017-05-19T00:03:04.055Z,998.21
2017-05-19T00:03:44.485Z,998.24
2017-05-19T00:04:24.977Z,998.15
2017-05-19T00:05:05.700Z,998.13
2017-05-19T00:05:46.140Z,998.1
2017-05-19T00:06:26.646Z,998.14
2017-05-19T00:07:07.045Z,998.13
2017-05-19T00:07:47.474Z,998.17
2017-05-19T00:08:27.941Z,998.13
2017-05-19T00:09:09.654Z,998.12
2017-05-19T00:09:50.737Z,998.12
2017-05-19T00:10:37.724Z,998.09
2017-05-19T00:11:17.959Z,998.08
2017-05-19T00:11:58.450Z,998.15
2017-05-19T00:12:38.855Z,998.18
2017-05-19T00:13:19.376Z,998.18
2017-05-19T00:13:59.863Z,998.18
2017-05-19T00:14:40.399Z,998.2
2017-05-19T00:15:20.777Z,998.23
2017-05-19T00:16:01.279Z,998.27
2017-05-19T00:16:41.721Z,998.26
2017-05-19T00:17:22.181Z,998.25
2017-05-19T00:18:02.670Z,998.25
2017-05-19T00:18:43.498Z,998.37
2017-05-19T00:19:24.244Z,998.42
2017-05-19T00:20:04.731Z,998.45
2017-05-19T00:20:45.192Z,998.48
2017-05-19T00:21:25.674Z,998.52
2017-05-19T00:22:07.255Z,998.48
2017-05-19T00:22:48.647Z,998.49
2017-05-19T00:23:29.143Z,998.52
2017-05-19T00:24:09.821Z,998.54
2017-05-19T00:24:50.430Z,998.51
2017-05-19T00:25:31.532Z,998.47
2017-05-19T00:26:13.259Z,998.46
2017-05-19T00:26:53.825Z,998.38
2017-05-19T00:27:36.009Z,998.39
2017-05-19T00:28:16.322Z,998.4
2017-05-19T00:28:58.494Z,998.38
2017-05-19T00:29:38.924Z,998.44
2017-05-19T00:30:19.347Z,998.37
2017-05-19T00:30:59.847Z,998.36
2017-05-19T00:31:40.236Z,998.43
2017-05-19T00:32:20.702Z,998.38
2017-05-19T00:33:01.218Z,998.35
2017-05-19T00:33:41.626Z,998.41
2017-05-19T00:34:22.243Z,998.43
2017-05-19T00:35:02.763Z,998.43
2017-05-19T00:35:43.228Z,998.42
2017-05-19T00:36:23.745Z,998.42
2017-05-19T00:37:04.201Z,998.46
2017-05-19T00:37:44.752Z,998.47
2017-05-19T00:38:25.149Z,998.43
2017-05-19T00:39:05.536Z,998.48
2017-05-19T00:39:46.039Z,998.48
2017-05-19T00:40:26.446Z,998.43
2017-05-19T00:41:06.984Z,998.46
2017-05-19T00:41:47.497Z,998.45
2017-05-19T00:42:27.991Z,998.43
2017-05-19T00:43:08.442Z,998.42
2017-05-19T00:43:48.958Z,998.42
2017-05-19T00:44:29.376Z,998.47
2017-05-19T00:45:09.834Z,998.49
2017-05-19T00:45:50.280Z,998.47
2017-05-19T00:46:30.708Z,998.51
2017-05-19T00:47:11.176Z,998.54
2017-05-19T00:47:51.594Z,998.5
2017-05-19T00:48:32.042Z,998.46
2017-05-19T00:49:12.479Z,998.48
2017-05-19T00:49:52.966Z,998.51
2017-05-19T00:50:33.400Z,998.5
2017-05-19T00:51:13.982Z,998.48
2017-05-19T00:51:54.484Z,998.46
2017-05-19T00:52:34.946Z,998.47
2017-05-19T00:53:15.402Z,998.5
2017-05-19T00:53:55.863Z,998.46
2017-05-19T00:54:37.288Z,998.48
2017-05-19T00:55:18.738Z,998.46
2017-05-19T00:56:03.959Z,998.47
2017-05-19T00:58:34.816Z,998.4
2017-05-19T00:59:15.272Z,998.37
2017-05-19T00:59:55.727Z,998.34
2017-05-19T01:00:36.194Z,998.39
2017-05-19T01:01:17.565Z,998.42
2017-05-19T01:01:58.995Z,998.43
2017-05-19T01:02:39.457Z,998.38
2017-05-19T01:03:19.907Z,998.36
2017-05-19T01:04:00.992Z,998.37
2017-05-19T01:04:41.450Z,998.32
2017-05-19T01:05:21.896Z,998.32
2017-05-19T01:06:02.314Z,998.29
2017-05-19T01:08:22.736Z,998.33
2017-05-19T01:09:02.997Z,998.34
2017-05-19T01:09:43.496Z,998.37
2017-05-19T01:10:23.971Z,998.38
2017-05-19T01:11:04.355Z,998.4
2017-05-19T01:11:44.975Z,998.38
2017-05-19T01:12:25.474Z,998.37
2017-05-19T01:13:05.936Z,998.36
2017-05-19T01:13:46.383Z,998.38
2017-05-19T01:14:26.844Z,998.44
2017-05-19T01:15:07.333Z,998.47
2017-05-19T01:15:47.749Z,998.46
2017-05-19T01:16:28.299Z,998.49
2017-05-19T01:17:08.719Z,998.51
2017-05-19T01:17:49.222Z,998.48
2017-05-19T01:18:29.717Z,998.5
2017-05-19T01:19:10.098Z,998.51
2017-05-19T01:19:50.561Z,998.49
2017-05-19T01:20:30.977Z,998.53
2017-05-19T01:21:11.425Z,998.5
2017-05-19T01:21:51.933Z,998.44
2017-05-19T01:22:32.363Z,998.46
2017-05-19T01:23:12.859Z,998.41
2017-05-19T01:23:53.346Z,998.38
2017-05-19T01:24:33.779Z,998.32
2017-05-19T01:25:14.274Z,998.33
2017-05-19T01:25:54.712Z,998.29
2017-05-19T01:26:35.209Z,998.26
2017-05-19T01:27:15.669Z,998.23
2017-05-19T01:27:56.155Z,998.21
2017-05-19T01:28:36.623Z,998.19
2017-05-19T01:29:17.109Z,998.22
2017-05-19T01:29:57.534Z,998.21
2017-05-19T01:30:37.979Z,998.15
2017-05-19T01:31:18.489Z,998.13
2017-05-19T01:31:58.974Z,998.11
2017-05-19T01:32:39.486Z,998.09
2017-05-19T01:33:19.951Z,998.1
2017-05-19T01:34:00.386Z,998.1
2017-05-19T01:34:40.894Z,998.07
2017-05-19T01:35:21.340Z,998.07
2017-05-19T01:36:01.830Z,998.07
2017-05-19T01:36:42.259Z,998.08
2017-05-19T01:37:22.698Z,998.09
2017-05-19T01:38:03.192Z,998.12
2017-05-19T01:38:43.670Z,998.16
2017-05-19T01:39:24.091Z,998.15
2017-05-19T01:40:04.576Z,998.19
2017-05-19T01:40:45.018Z,998.2
2017-05-19T01:41:25.446Z,998.21
2017-05-19T01:42:05.936Z,998.19
2017-05-19T01:42:46.368Z,998.19
2017-05-19T01:43:26.837Z,998.2
2017-05-19T01:44:07.295Z,998.18
2017-05-19T01:44:47.730Z,998.19
2017-05-19T01:45:28.225Z,998.19
2017-05-19T01:46:08.659Z,998.14
2017-05-19T01:46:49.348Z,998.16
2017-05-19T01:47:29.816Z,998.12
2017-05-19T01:48:10.267Z,998.11
2017-05-19T01:48:50.704Z,998.09
2017-05-19T01:49:31.177Z,998.09
2017-05-19T01:50:11.644Z,998.09
2017-05-19T01:50:52.086Z,998.11
2017-05-19T01:51:32.559Z,998.07
2017-05-19T01:52:13.012Z,998.1
2017-05-19T01:52:53.530Z,998.09
2017-05-19T01:53:33.910Z,998.09
2017-05-19T01:54:14.370Z,998.09
2017-05-19T01:54:54.821Z,998.07
2017-05-19T01:55:35.305Z,998.08
2017-05-19T01:56:15.905Z,998.02
2017-05-19T01:56:56.335Z,998.05
2017-05-19T01:57:36.856Z,998.02
2017-05-19T01:58:17.217Z,997.99
2017-05-19T01:58:57.716Z,998
2017-05-19T01:59:38.141Z,998.01
2017-05-19T02:00:18.657Z,998.01
2017-05-19T02:00:59.134Z,998.02
2017-05-19T02:01:39.584Z,998.06
2017-05-19T02:02:20.039Z,997.98
2017-05-19T02:03:00.495Z,997.98
2017-05-19T02:03:40.960Z,997.98
2017-05-19T02:04:21.375Z,997.99
2017-05-19T02:05:01.798Z,997.95
2017-05-19T02:05:42.247Z,997.96
2017-05-19T02:06:22.745Z,997.96
2017-05-19T02:07:03.182Z,997.98
2017-05-19T02:07:43.639Z,998
2017-05-19T02:08:24.109Z,997.95
2017-05-19T02:09:04.534Z,998
2017-05-19T02:09:45.011Z,998.03
2017-05-19T02:10:25.474Z,997.97
2017-05-19T02:11:05.922Z,998
2017-05-19T02:11:46.385Z,998.01
2017-05-19T02:12:26.828Z,998.01
2017-05-19T02:13:07.274Z,998.03
2017-05-19T02:13:47.698Z,998.05
2017-05-19T02:14:28.124Z,998.08
2017-05-19T02:15:08.626Z,998.05
2017-05-19T02:15:49.098Z,998.04
2017-05-19T02:16:29.562Z,998.06
2017-05-19T02:17:10.007Z,998.07
2017-05-19T02:17:50.489Z,998.07
2017-05-19T02:18:30.905Z,998.07
2017-05-19T02:19:11.364Z,998.08
2017-05-19T02:19:51.823Z,998.07
2017-05-19T02:20:32.313Z,998.06
2017-05-19T02:21:12.793Z,998.08
2017-05-19T02:21:53.345Z,998.1
2017-05-19T02:22:33.753Z,998.08
2017-05-19T02:23:14.292Z,998.09
2017-05-19T02:23:54.724Z,998.1
2017-05-19T02:24:35.179Z,998.08
2017-05-19T02:25:15.670Z,998.08
2017-05-19T02:25:56.143Z,998.13
2017-05-19T02:26:36.537Z,998.13
2017-05-19T02:27:16.993Z,998.16
2017-05-19T02:27:57.420Z,998.16
2017-05-19T02:28:37.849Z,998.19
2017-05-19T02:29:18.334Z,998.17
2017-05-19T02:29:58.768Z,998.2
2017-05-19T02:30:39.222Z,998.16
2017-05-19T02:31:19.783Z,998.17
2017-05-19T02:32:00.210Z,998.16
2017-05-19T02:32:40.592Z,998.12
2017-05-19T02:33:21.015Z,998.16
2017-05-19T02:34:01.482Z,998.16
2017-05-19T02:34:41.930Z,998.14
2017-05-19T02:35:22.372Z,998.11
2017-05-19T02:36:02.842Z,998.11
2017-05-19T02:36:43.844Z,998.09
2017-05-19T02:37:24.295Z,998.07
2017-05-19T02:38:04.778Z,998.07
2017-05-19T02:38:45.220Z,998.07
2017-05-19T02:39:25.665Z,998.06
2017-05-19T02:40:06.094Z,998.02
2017-05-19T02:40:46.561Z,998.02
2017-05-19T02:41:27.063Z,998.03
2017-05-19T02:42:07.535Z,997.98
2017-05-19T02:42:47.987Z,997.99
2017-05-19T02:43:28.456Z,997.97
2017-05-19T02:44:08.934Z,997.99
2017-05-19T02:44:49.330Z,997.98
2017-05-19T02:45:29.789Z,997.98
2017-05-19T02:46:10.313Z,998
2017-05-19T02:46:50.831Z,997.98
2017-05-19T02:47:31.279Z,997.96
2017-05-19T02:48:11.747Z,997.98
2017-05-19T02:48:52.228Z,998.01
2017-05-19T02:49:32.700Z,997.96
2017-05-19T02:50:13.126Z,997.98
2017-05-19T02:50:53.602Z,997.97
2017-05-19T02:51:34.039Z,997.97
2017-05-19T02:52:14.554Z,998
2017-05-19T02:52:55.014Z,998.01
2017-05-19T02:53:35.462Z,997.99
2017-05-19T02:54:15.899Z,998.03
2017-05-19T02:54:56.377Z,998.06
2017-05-19T02:55:36.736Z,998.03
2017-05-19T02:56:17.225Z,998.05
2017-05-19T02:56:57.705Z,997.99
2017-05-19T02:57:38.134Z,998
2017-05-19T02:58:18.563Z,998
2017-05-19T02:58:58.947Z,997.99
2017-05-19T02:59:39.477Z,997.97
2017-05-19T03:00:19.887Z,997.93
2017-05-19T03:01:00.383Z,997.95
2017-05-19T03:01:40.883Z,997.95
2017-05-19T03:02:21.256Z,997.9
2017-05-19T03:03:01.715Z,997.92
2017-05-19T03:03:42.156Z,997.9
2017-05-19T03:04:22.672Z,997.88
2017-05-19T03:05:03.063Z,997.9
2017-05-19T03:05:43.505Z,997.89
2017-05-19T03:06:23.997Z,997.85
2017-05-19T03:07:04.519Z,997.86
2017-05-19T03:07:44.961Z,997.86
2017-05-19T03:08:25.388Z,997.88
2017-05-19T03:09:05.807Z,997.88
2017-05-19T03:09:46.345Z,997.88
2017-05-19T03:10:26.744Z,997.9
2017-05-19T03:11:07.174Z,997.89
2017-05-19T03:11:47.710Z,997.91
2017-05-19T03:12:28.172Z,997.89
2017-05-19T03:13:08.642Z,997.89
2017-05-19T03:13:49.117Z,997.88
2017-05-19T03:14:29.612Z,997.94
2017-05-19T03:15:09.945Z,997.94
2017-05-19T03:15:50.467Z,997.97
2017-05-19T03:16:30.895Z,997.96
2017-05-19T03:17:11.308Z,997.95
2017-05-19T03:17:51.913Z,998
2017-05-19T03:18:32.380Z,998.02
2017-05-19T03:19:12.713Z,998.01
2017-05-19T03:19:53.258Z,998.05
2017-05-19T03:20:33.613Z,998.08
2017-05-19T03:21:14.020Z,998.09
2017-05-19T03:21:54.591Z,998.08
2017-05-19T03:22:35.083Z,998.12
2017-05-19T03:23:15.543Z,998.16
2017-05-19T03:25:44.279Z,998.15
2017-05-19T03:26:24.691Z,998.15
2017-05-19T03:27:05.143Z,998.17
2017-05-19T03:27:45.699Z,998.15
2017-05-19T03:28:26.424Z,998.12
2017-05-19T03:29:06.830Z,998.11
2017-05-19T03:29:47.269Z,998.14
2017-05-19T03:30:27.784Z,998.14
2017-05-19T03:31:08.188Z,998.12
2017-05-19T03:31:48.698Z,998.15
2017-05-19T03:32:29.102Z,998.17
2017-05-19T03:33:09.614Z,998.15
2017-05-19T03:33:50.184Z,998.15
2017-05-19T03:35:48.323Z,998.23
2017-05-19T03:36:37.018Z,998.27
2017-05-19T03:37:25.434Z,998.28
2017-05-19T03:38:05.687Z,998.3
2017-05-19T03:38:46.065Z,998.32
2017-05-19T03:39:26.478Z,998.32
2017-05-19T03:40:06.937Z,998.37
2017-05-19T03:40:47.501Z,998.37
2017-05-19T03:41:27.952Z,998.36
2017-05-19T03:42:08.375Z,998.34
2017-05-19T03:42:48.939Z,998.37
2017-05-19T03:43:29.302Z,998.37
2017-05-19T03:44:09.738Z,998.38
2017-05-19T03:44:50.672Z,998.43
2017-05-19T03:45:31.444Z,998.46
2017-05-19T03:46:11.849Z,998.46
2017-05-19T03:46:52.293Z,998.46
2017-05-19T03:47:32.972Z,998.47
2017-05-19T03:48:13.792Z,998.48
2017-05-19T03:48:54.173Z,998.51
2017-05-19T03:49:34.734Z,998.53
2017-05-19T03:50:15.192Z,998.5
2017-05-19T03:50:55.704Z,998.5
2017-05-19T03:51:36.107Z,998.47
2017-05-19T03:52:16.734Z,998.47
2017-05-19T03:52:57.210Z,998.47
2017-05-19T03:53:37.623Z,998.46
2017-05-19T03:54:18.214Z,998.47
2017-05-19T03:54:58.647Z,998.46
2017-05-19T03:55:39.214Z,998.42
2017-05-19T03:56:19.817Z,998.45
2017-05-19T03:57:00.551Z,998.43
2017-05-19T03:57:41.099Z,998.42
2017-05-19T03:58:21.489Z,998.42
2017-05-19T03:59:02.007Z,998.46
2017-05-19T03:59:42.566Z,998.44
2017-05-19T04:00:24.086Z,998.41
2017-05-19T04:01:04.466Z,998.44
2017-05-19T04:01:45.075Z,998.43
2017-05-19T04:02:25.559Z,998.44
2017-05-19T04:03:06.736Z,998.45
2017-05-19T04:03:47.198Z,998.49
2017-05-19T04:04:27.786Z,998.47
2017-05-19T04:05:08.222Z,998.49
2017-05-19T04:05:48.682Z,998.48
2017-05-19T04:06:29.460Z,998.46
2017-05-19T04:07:10.113Z,998.51
2017-05-19T04:07:50.560Z,998.48
2017-05-19T04:08:31.184Z,998.49
2017-05-19T04:09:13.085Z,998.55
2017-05-19T04:09:53.558Z,998.54
2017-05-19T04:10:34.453Z,998.5
2017-05-19T04:11:15.012Z,998.5
2017-05-19T04:11:55.457Z,998.5
2017-05-19T04:12:36.056Z,998.53
2017-05-19T04:13:16.685Z,998.53
2017-05-19T04:13:57.249Z,998.51
2017-05-19T04:14:37.630Z,998.53
2017-05-19T04:15:18.384Z,998.54
2017-05-19T04:15:58.725Z,998.55
2017-05-19T04:16:39.213Z,998.5
2017-05-19T04:17:19.771Z,998.48
2017-05-19T04:18:00.369Z,998.53
2017-05-19T04:18:40.813Z,998.51
2017-05-19T04:19:21.263Z,998.51
2017-05-19T04:20:01.765Z,998.51
2017-05-19T04:20:42.510Z,998.49
2017-05-19T04:21:22.916Z,998.52
2017-05-19T04:22:04.314Z,998.52
2017-05-19T04:22:45.051Z,998.53
2017-05-19T04:23:25.427Z,998.54
2017-05-19T04:24:06.251Z,998.54
2017-05-19T04:24:46.726Z,998.53
2017-05-19T04:25:27.153Z,998.59
2017-05-19T04:26:08.356Z,998.57
2017-05-19T04:26:49.076Z,998.57
2017-05-19T04:27:29.574Z,998.53
2017-05-19T04:28:10.016Z,998.58
2017-05-19T04:28:51.396Z,998.56
2017-05-19T04:29:32.175Z,998.52
2017-05-19T04:30:12.404Z,998.56
2017-05-19T04:30:53.036Z,998.49
2017-05-19T04:31:33.538Z,998.48
2017-05-19T04:32:13.973Z,998.48
2017-05-19T04:32:54.493Z,998.48
2017-05-19T04:33:34.999Z,998.47
2017-05-19T04:34:15.687Z,998.5
2017-05-19T04:34:56.008Z,998.53
2017-05-19T04:35:36.693Z,998.51
2017-05-19T04:36:17.248Z,998.55
2017-05-19T04:36:57.771Z,998.52
2017-05-19T04:37:38.569Z,998.53
2017-05-19T04:38:19.800Z,998.56
2017-05-19T04:39:00.492Z,998.53
2017-05-19T04:39:41.943Z,998.53
2017-05-19T04:40:22.383Z,998.54
2017-05-19T04:41:02.813Z,998.56
2017-05-19T04:41:43.358Z,998.55
2017-05-19T04:42:23.911Z,998.56
2017-05-19T04:43:04.407Z,998.54
2017-05-19T04:43:45.556Z,998.55
2017-05-19T04:44:26.226Z,998.54
2017-05-19T04:45:06.693Z,998.55
2017-05-19T04:45:47.164Z,998.54
2017-05-19T04:46:27.947Z,998.56
2017-05-19T04:47:08.198Z,998.57
2017-05-19T04:47:48.659Z,998.57
2017-05-19T04:50:21.920Z,998.57
2017-05-19T04:51:11.015Z,998.57
2017-05-19T04:51:59.434Z,998.6
2017-05-19T04:52:47.900Z,998.59
2017-05-19T04:53:36.396Z,998.62
2017-05-19T04:54:25.694Z,998.62
2017-05-19T04:55:14.442Z,998.6
2017-05-19T04:56:03.082Z,998.63
2017-05-19T04:56:51.055Z,998.64
2017-05-19T04:57:35.434Z,998.63
2017-05-19T04:58:15.786Z,998.63
2017-05-19T04:58:56.220Z,998.64
2017-05-19T04:59:36.683Z,998.63
2017-05-19T05:00:17.089Z,998.66
2017-05-19T05:00:57.525Z,998.63
2017-05-19T05:01:37.972Z,998.64
2017-05-19T05:02:18.488Z,998.67
2017-05-19T05:02:58.901Z,998.66
2017-05-19T05:03:39.344Z,998.65
2017-05-19T05:04:19.802Z,998.66
2017-05-19T05:05:00.289Z,998.69
2017-05-19T05:05:40.736Z,998.69
2017-05-19T05:06:21.186Z,998.67
2017-05-19T05:07:01.649Z,998.7
2017-05-19T05:07:42.061Z,998.69
2017-05-19T05:08:22.515Z,998.68
2017-05-19T05:09:02.987Z,998.67
2017-05-19T05:09:43.450Z,998.7
2017-05-19T05:10:23.927Z,998.67
2017-05-19T05:11:04.403Z,998.66
2017-05-19T05:11:44.862Z,998.62
2017-05-19T05:12:25.305Z,998.58
2017-05-19T05:13:05.763Z,998.55
2017-05-19T05:13:46.208Z,998.57
2017-05-19T05:14:26.673Z,998.57
2017-05-19T05:15:07.122Z,998.53
2017-05-19T05:15:47.605Z,998.51
2017-05-19T05:16:28.332Z,998.5
2017-05-19T05:17:08.778Z,998.51
2017-05-19T05:17:49.229Z,998.53
2017-05-19T05:18:29.701Z,998.53
2017-05-19T05:19:10.158Z,998.52
2017-05-19T05:19:50.618Z,998.55
2017-05-19T05:20:31.035Z,998.55
2017-05-19T05:21:11.614Z,998.54
2017-05-19T05:21:52.109Z,998.57
2017-05-19T05:22:32.561Z,998.59
2017-05-19T05:23:13.046Z,998.57
2017-05-19T05:23:53.521Z,998.62
2017-05-19T05:24:34.025Z,998.6
2017-05-19T05:25:14.449Z,998.59
2017-05-19T05:25:54.906Z,998.6
2017-05-19T05:26:35.424Z,998.6
2017-05-19T05:27:15.825Z,998.62
2017-05-19T05:27:56.321Z,998.61
2017-05-19T05:28:36.790Z,998.62
2017-05-19T05:29:17.237Z,998.6
2017-05-19T05:29:57.711Z,998.62
2017-05-19T05:30:38.157Z,998.6
2017-05-19T05:31:18.693Z,998.61
2017-05-19T05:31:59.154Z,998.6
2017-05-19T05:32:39.615Z,998.62
2017-05-19T05:33:20.639Z,998.58
2017-05-19T05:34:01.150Z,998.59
2017-05-19T05:36:13.980Z,998.61
2017-05-19T05:36:55.322Z,998.56
2017-05-19T05:37:35.796Z,998.59
2017-05-19T05:38:16.257Z,998.55
2017-05-19T05:38:56.753Z,998.58
2017-05-19T05:39:37.202Z,998.58
2017-05-19T05:41:30.022Z,998.61
2017-05-19T05:42:10.454Z,998.66
2017-05-19T05:42:50.928Z,998.65
2017-05-19T05:43:31.380Z,998.63
2017-05-19T05:44:11.827Z,998.66
2017-05-19T05:44:52.310Z,998.62
2017-05-19T05:45:32.764Z,998.6
2017-05-19T05:46:13.244Z,998.6
2017-05-19T05:48:31.084Z,998.58
2017-05-19T05:49:11.533Z,998.56
2017-05-19T05:49:52.006Z,998.6
2017-05-19T05:50:32.473Z,998.62
2017-05-19T05:51:12.985Z,998.61
2017-05-19T05:51:53.427Z,998.62
2017-05-19T05:52:33.913Z,998.65
2017-05-19T05:53:14.362Z,998.66
2017-05-19T05:53:54.799Z,998.66
2017-05-19T05:54:35.265Z,998.64
2017-05-19T05:55:15.744Z,998.63
2017-05-19T05:55:56.216Z,998.66
2017-05-19T05:56:36.674Z,998.65
2017-05-19T05:57:17.124Z,998.73
2017-05-19T05:59:29.901Z,998.73
2017-05-19T06:00:10.348Z,998.72
2017-05-19T06:00:50.861Z,998.76
2017-05-19T06:01:31.492Z,998.78
2017-05-19T06:02:12.064Z,998.77
2017-05-19T06:02:52.691Z,998.82
2017-05-19T06:03:33.211Z,998.81
2017-05-19T06:04:13.732Z,998.82
2017-05-19T06:04:54.207Z,998.86
2017-05-19T06:05:34.674Z,998.94
2017-05-19T06:06:15.155Z,998.96
2017-05-19T06:06:55.650Z,998.91
2017-05-19T06:07:36.109Z,999.04
2017-05-19T06:08:16.544Z,999.03
2017-05-19T06:08:57.015Z,999.02
2017-05-19T06:09:37.505Z,999.07
2017-05-19T06:10:17.979Z,999.13
2017-05-19T06:10:58.423Z,999.13
2017-05-19T06:11:38.904Z,999.25
2017-05-19T06:12:19.361Z,999.28
2017-05-19T06:12:59.837Z,999.25
2017-05-19T06:13:40.300Z,999.33
2017-05-19T06:14:20.755Z,999.32
2017-05-19T06:15:01.230Z,999.35
2017-05-19T06:15:41.685Z,999.32
2017-05-19T06:16:22.161Z,999.29
2017-05-19T06:17:02.633Z,999.36
2017-05-19T06:17:43.111Z,999.32
2017-05-19T06:18:23.573Z,999.27
2017-05-19T06:19:04.029Z,999.19
2017-05-19T06:19:44.492Z,999.22
2017-05-19T06:20:24.949Z,999.17
2017-05-19T06:21:05.419Z,999.23
2017-05-19T06:21:45.913Z,999.18
2017-05-19T06:22:26.387Z,999.2
2017-05-19T06:23:06.857Z,999.18
2017-05-19T06:23:47.283Z,999.19
2017-05-19T06:25:39.888Z,999.22
2017-05-19T06:26:20.381Z,999.31
2017-05-19T06:27:01.437Z,999.28
2017-05-19T06:27:41.870Z,999.29
2017-05-19T06:28:22.310Z,999.29
2017-05-19T06:30:35.055Z,999.31
2017-05-19T06:31:15.541Z,999.32
2017-05-19T06:31:56.031Z,999.32
2017-05-19T06:32:36.543Z,999.33
2017-05-19T06:33:17.035Z,999.27
2017-05-19T06:33:57.544Z,999.28
2017-05-19T06:34:37.999Z,999.26
2017-05-19T06:35:18.477Z,999.28
2017-05-19T06:35:58.955Z,999.24
2017-05-19T06:36:39.422Z,999.26
2017-05-19T06:37:19.929Z,999.27
2017-05-19T06:38:00.458Z,999.25
2017-05-19T06:38:40.954Z,999.27
2017-05-19T06:39:21.414Z,999.3
2017-05-19T06:40:01.919Z,999.26
2017-05-19T06:40:42.386Z,999.27
2017-05-19T06:41:22.813Z,999.3
2017-05-19T06:42:03.262Z,999.3
2017-05-19T06:42:43.692Z,999.29
2017-05-19T06:43:24.166Z,999.33
2017-05-19T06:44:04.640Z,999.28
2017-05-19T06:44:45.101Z,999.3
2017-05-19T06:47:02.954Z,999.38
2017-05-19T06:47:43.373Z,999.41
2017-05-19T06:48:23.824Z,999.44
2017-05-19T06:49:04.282Z,999.45
2017-05-19T06:49:44.731Z,999.44
2017-05-19T06:50:25.705Z,999.51
2017-05-19T06:51:06.673Z,999.44
2017-05-19T06:51:47.150Z,999.44
2017-05-19T06:52:27.581Z,999.41
2017-05-19T06:53:08.704Z,999.42
2017-05-19T06:53:50.467Z,999.45
2017-05-19T06:54:30.902Z,999.41
2017-05-19T06:55:11.356Z,999.37
2017-05-19T06:55:51.822Z,999.35
2017-05-19T06:56:32.266Z,999.37
2017-05-19T06:57:12.728Z,999.37
2017-05-19T06:57:53.151Z,999.41
2017-05-19T06:58:33.579Z,999.42
2017-05-19T06:59:14.050Z,999.43
2017-05-19T06:59:54.523Z,999.41
2017-05-19T07:02:12.465Z,999.43
2017-05-19T07:04:10.095Z,999.43
2017-05-19T07:04:50.556Z,999.44
2017-05-19T07:05:31.041Z,999.48
2017-05-19T07:06:11.521Z,999.44
2017-05-19T07:06:51.984Z,999.46
2017-05-19T07:07:32.418Z,999.48
2017-05-19T07:09:24.990Z,999.46
2017-05-19T07:10:05.483Z,999.45
2017-05-19T07:10:45.960Z,999.45
2017-05-19T07:12:58.728Z,999.39
2017-05-19T07:13:39.278Z,999.43
2017-05-19T07:14:19.709Z,999.43
2017-05-19T07:15:00.157Z,999.39
2017-05-19T07:15:40.645Z,999.46
2017-05-19T07:18:08.793Z,999.59
2017-05-19T07:18:49.284Z,999.64
2017-05-19T07:19:29.783Z,999.67
2017-05-19T07:20:10.250Z,999.68
2017-05-19T07:20:50.843Z,999.7
2017-05-19T07:21:31.311Z,999.69
2017-05-19T07:22:11.806Z,999.81
2017-05-19T07:22:52.286Z,999.7
2017-05-19T07:23:32.782Z,999.78
2017-05-19T07:24:13.265Z,999.66
2017-05-19T07:24:53.748Z,999.72
2017-05-19T07:25:34.258Z,999.71
2017-05-19T07:26:14.743Z,999.76
2017-05-19T07:26:55.262Z,999.76
2017-05-19T07:27:35.743Z,999.8
2017-05-19T07:28:16.251Z,999.75
2017-05-19T07:28:56.765Z,999.78
2017-05-19T07:29:37.254Z,999.8
2017-05-19T07:30:17.800Z,999.82
2017-05-19T07:30:58.346Z,999.85
2017-05-19T07:31:38.856Z,999.87
2017-05-19T07:32:19.353Z,999.85
2017-05-19T07:32:59.886Z,999.95
2017-05-19T07:33:41.104Z,999.85
2017-05-19T07:34:21.643Z,999.9
2017-05-19T07:35:02.155Z,999.85
2017-05-19T07:35:42.616Z,999.94
2017-05-19T07:37:36.372Z,999.93
2017-05-19T07:38:16.729Z,999.98
2017-05-19T07:38:57.249Z,999.91
2017-05-19T07:39:37.766Z,1000
2017-05-19T07:40:18.316Z,999.91
2017-05-19T07:40:58.829Z,999.86
2017-05-19T07:41:39.294Z,1000.04
2017-05-19T07:42:19.854Z,1000.04
2017-05-19T07:43:00.325Z,999.93
2017-05-19T07:43:40.875Z,999.95
2017-05-19T07:44:21.376Z,999.95
2017-05-19T07:46:19.557Z,999.96
2017-05-19T07:46:59.897Z,999.92
2017-05-19T07:47:40.389Z,999.9
2017-05-19T07:48:20.919Z,999.9
2017-05-19T07:49:01.421Z,999.96
2017-05-19T07:49:41.947Z,999.95
2017-05-19T07:50:22.469Z,999.98
2017-05-19T07:51:02.970Z,999.98
2017-05-19T07:51:43.464Z,999.91
2017-05-19T07:52:23.997Z,999.93
2017-05-19T07:53:04.552Z,1000
2017-05-19T07:53:45.097Z,1000.02
2017-05-19T07:54:25.745Z,999.99
2017-05-19T07:55:06.232Z,1000.09
2017-05-19T07:55:46.698Z,1000.05
2017-05-19T07:56:27.150Z,1000.09
2017-05-19T07:57:07.740Z,1000.13
2017-05-19T07:57:48.315Z,1000.14
2017-05-19T08:00:16.282Z,1000.1
2017-05-19T08:00:56.716Z,1000.13
2017-05-19T08:01:37.290Z,1000.1
2017-05-19T08:03:35.109Z,1000.12
2017-05-19T08:04:15.609Z,1000.03
2017-05-19T08:04:56.088Z,1000.04
2017-05-19T08:05:36.625Z,1000.03
2017-05-19T08:06:17.113Z,1000.03
2017-05-19T08:06:57.613Z,999.99
2017-05-19T08:07:38.106Z,999.94
2017-05-19T08:09:50.785Z,1000.07
2017-05-19T08:10:31.230Z,1000.06
2017-05-19T08:11:11.737Z,1000.09
2017-05-19T08:11:52.232Z,1000.1
2017-05-19T08:12:32.692Z,1000.09
2017-05-19T08:13:13.239Z,1000.16
2017-05-19T08:13:53.724Z,1000.17
2017-05-19T08:14:34.170Z,1000.18
2017-05-19T08:15:14.697Z,1000.19
2017-05-19T08:15:55.139Z,1000.2
2017-05-19T08:16:35.588Z,1000.2
2017-05-19T08:17:16.036Z,1000.18
2017-05-19T08:17:56.557Z,1000.22
2017-05-19T08:18:37.100Z,1000.19
2017-05-19T08:19:17.576Z,1000.22
2017-05-19T08:19:58.020Z,1000.25
2017-05-19T08:20:38.552Z,1000.23
2017-05-19T08:21:19.023Z,1000.23
2017-05-19T08:21:59.457Z,1000.21
2017-05-19T08:23:52.037Z,1000.21
2017-05-19T08:24:32.539Z,1000.2
2017-05-19T08:25:13.015Z,1000.25
2017-05-19T08:25:53.506Z,1000.27
2017-05-19T08:26:34.021Z,1000.33
2017-05-19T08:27:14.495Z,1000.27
2017-05-19T08:27:54.991Z,1000.31
2017-05-19T08:28:35.414Z,1000.28
2017-05-19T08:30:33.091Z,1000.27
2017-05-19T08:31:13.635Z,1000.24
2017-05-19T08:31:54.128Z,1000.23
2017-05-19T08:32:34.623Z,1000.19
2017-05-19T08:33:15.099Z,1000.27
2017-05-19T08:33:56.502Z,1000.17
2017-05-19T08:34:37.229Z,1000.24
2017-05-19T08:35:17.801Z,1000.23
2017-05-19T08:35:58.338Z,1000.21
2017-05-19T08:36:38.844Z,1000.23
2017-05-19T08:37:19.324Z,1000.26
2017-05-19T08:37:59.934Z,1000.22
2017-05-19T08:39:57.689Z,1000.11
2017-05-19T08:40:38.174Z,1000.14
2017-05-19T08:41:18.682Z,1000.15
2017-05-19T08:41:59.198Z,1000.18
2017-05-19T08:42:39.763Z,1000.2
2017-05-19T08:43:20.358Z,1000.21
2017-05-19T08:44:00.793Z,1000.14
2017-05-19T08:44:41.277Z,1000.17
2017-05-19T08:46:38.900Z,1000.15
2017-05-19T08:47:19.378Z,1000.13
2017-05-19T08:47:59.879Z,1000.14
2017-05-19T08:48:40.324Z,1000.13
2017-05-19T08:49:20.832Z,1000.11
2017-05-19T08:50:01.304Z,1000.11
2017-05-19T08:52:14.114Z,1000.1
2017-05-19T08:52:54.568Z,1000.15
2017-05-19T08:53:35.082Z,1000.08
2017-05-19T08:54:15.613Z,1000.12
2017-05-19T08:54:56.126Z,1000.14
2017-05-19T08:55:36.578Z,1000.14
2017-05-19T08:57:49.307Z,1000.2
2017-05-19T08:58:29.783Z,1000.19
2017-05-19T08:59:10.252Z,1000.28
2017-05-19T08:59:50.728Z,1000.27
2017-05-19T09:00:31.183Z,1000.32
2017-05-19T09:01:11.672Z,1000.27
2017-05-19T09:03:04.339Z,1000.26
2017-05-19T09:03:44.740Z,1000.31
2017-05-19T09:04:25.205Z,1000.29
2017-05-19T09:06:37.981Z,1000.3
2017-05-19T09:07:18.409Z,1000.31
2017-05-19T09:07:58.823Z,1000.35
2017-05-19T09:08:39.303Z,1000.29
2017-05-19T09:09:19.758Z,1000.35
2017-05-19T09:10:00.247Z,1000.3
2017-05-19T09:10:40.760Z,1000.33
2017-05-19T09:11:21.289Z,1000.29